sensor_id;sensor_type;location;lat;lon;timestamp;P1;durP1;ratioP1;P2;durP2;ratioP2
67841;SDS011;54642;59.126;37.876;2023-02-28T00:01:22;10.25;;;6.32;;
67841;SDS011;54642;59.126;37.876;2023-02-28T00:03:48;7.70;;;6.22;;
67841;SDS011;54642;59.126;37.876;2023-02-28T00:06:15;7.38;;;6.10;;
67841;SDS011;54642;59.126;37.876;2023-02-28T00:08:41;5.53;;;4.20;;
67841;SDS011;54642;59.126;37.876;2023-02-28T00:11:11;7.82;;;5.25;;
67841;SDS011;54642;59.126;37.876;2023-02-28T00:13:40;8.32;;;5.70;;
67841;SDS011;54642;59.126;37.876;2023-02-28T00:16:11;7.00;;;3.75;;
67841;SDS011;54642;59.126;37.876;2023-02-28T00:18:40;7.72;;;6.03;;
67841;SDS011;54642;59.126;37.876;2023-02-28T00:21:06;6.07;;;4.75;;
67841;SDS011;54642;59.126;37.876;2023-02-28T00:23:33;6.78;;;4.82;;
67841;SDS011;54642;59.126;37.876;2023-02-28T00:26:00;9.63;;;3.22;;
67841;SDS011;54642;59.126;37.876;2023-02-28T00:28:26;6.25;;;3.83;;
67841;SDS011;54642;59.126;37.876;2023-02-28T00:30:52;7.55;;;6.78;;
67841;SDS011;54642;59.126;37.876;2023-02-28T00:33:18;6.68;;;5.95;;
67841;SDS011;54642;59.126;37.876;2023-02-28T00:35:44;8.32;;;6.80;;
67841;SDS011;54642;59.126;37.876;2023-02-28T00:38:12;8.00;;;6.10;;
67841;SDS011;54642;59.126;37.876;2023-02-28T00:40:39;5.00;;;3.30;;
67841;SDS011;54642;59.126;37.876;2023-02-28T00:43:04;9.70;;;7.28;;
67841;SDS011;54642;59.126;37.876;2023-02-28T00:45:30;5.85;;;4.80;;
67841;SDS011;54642;59.126;37.876;2023-02-28T00:47:56;8.75;;;4.50;;
67841;SDS011;54642;59.126;37.876;2023-02-28T00:50:22;7.13;;;6.35;;
67841;SDS011;54642;59.126;37.876;2023-02-28T00:52:48;7.15;;;5.60;;
67841;SDS011;54642;59.126;37.876;2023-02-28T00:55:14;7.55;;;5.43;;
67841;SDS011;54642;59.126;37.876;2023-02-28T01:00:06;8.07;;;6.47;;
67841;SDS011;54642;59.126;37.876;2023-02-28T01:02:33;10.40;;;6.13;;
67841;SDS011;54642;59.126;37.876;2023-02-28T01:04:59;6.03;;;3.97;;
67841;SDS011;54642;59.126;37.876;2023-02-28T01:07:28;6.15;;;3.75;;
67841;SDS011;54642;59.126;37.876;2023-02-28T01:09:54;5.53;;;5.03;;
67841;SDS011;54642;59.126;37.876;2023-02-28T01:12:20;5.80;;;3.22;;
67841;SDS011;54642;59.126;37.876;2023-02-28T01:14:46;5.53;;;5.03;;
67841;SDS011;54642;59.126;37.876;2023-02-28T01:17:12;5.88;;;4.30;;
67841;SDS011;54642;59.126;37.876;2023-02-28T01:19:38;5.55;;;4.07;;
67841;SDS011;54642;59.126;37.876;2023-02-28T01:22:05;8.32;;;6.05;;
67841;SDS011;54642;59.126;37.876;2023-02-28T01:24:31;5.72;;;4.63;;
67841;SDS011;54642;59.126;37.876;2023-02-28T01:26:58;5.03;;;4.60;;
67841;SDS011;54642;59.126;37.876;2023-02-28T01:29:24;5.60;;;5.07;;
67841;SDS011;54642;59.126;37.876;2023-02-28T01:31:51;6.95;;;6.30;;
67841;SDS011;54642;59.126;37.876;2023-02-28T01:34:17;7.70;;;6.60;;
67841;SDS011;54642;59.126;37.876;2023-02-28T01:36:44;10.73;;;6.85;;
67841;SDS011;54642;59.126;37.876;2023-02-28T01:39:11;5.32;;;3.60;;
67841;SDS011;54642;59.126;37.876;2023-02-28T01:41:38;10.18;;;6.72;;
67841;SDS011;54642;59.126;37.876;2023-02-28T01:47:11;6.75;;;5.15;;
67841;SDS011;54642;59.126;37.876;2023-02-28T01:49:37;10.38;;;6.22;;
67841;SDS011;54642;59.126;37.876;2023-02-28T01:52:03;5.60;;;3.38;;
67841;SDS011;54642;59.126;37.876;2023-02-28T01:54:30;6.45;;;5.28;;
67841;SDS011;54642;59.126;37.876;2023-02-28T01:57:01;7.32;;;5.30;;
67841;SDS011;54642;59.126;37.876;2023-02-28T01:59:45;10.95;;;7.35;;
67841;SDS011;54642;59.126;37.876;2023-02-28T02:02:18;13.88;;;8.43;;
67841;SDS011;54642;59.126;37.876;2023-02-28T02:04:49;8.88;;;5.53;;
67841;SDS011;54642;59.126;37.876;2023-02-28T02:07:16;9.40;;;6.15;;
67841;SDS011;54642;59.126;37.876;2023-02-28T02:09:44;8.90;;;6.55;;
67841;SDS011;54642;59.126;37.876;2023-02-28T02:15:31;7.95;;;5.55;;
67841;SDS011;54642;59.126;37.876;2023-02-28T02:26:23;5.32;;;4.80;;
67841;SDS011;54642;59.126;37.876;2023-02-28T02:32:35;7.47;;;6.53;;
67841;SDS011;54642;59.126;37.876;2023-02-28T02:34:56;6.30;;;3.80;;
67841;SDS011;54642;59.126;37.876;2023-02-28T02:42:50;13.05;;;7.65;;
67841;SDS011;54642;59.126;37.876;2023-02-28T02:45:31;11.88;;;8.48;;
67841;SDS011;54642;59.126;37.876;2023-02-28T02:48:04;7.78;;;4.32;;
67841;SDS011;54642;59.126;37.876;2023-02-28T02:50:38;15.90;;;8.00;;
67841;SDS011;54642;59.126;37.876;2023-02-28T02:53:09;9.15;;;5.80;;
67841;SDS011;54642;59.126;37.876;2023-02-28T02:55:39;7.68;;;4.10;;
67841;SDS011;54642;59.126;37.876;2023-02-28T02:58:10;9.52;;;7.25;;
67841;SDS011;54642;59.126;37.876;2023-02-28T03:00:45;13.63;;;7.20;;
67841;SDS011;54642;59.126;37.876;2023-02-28T03:03:16;8.85;;;4.75;;
67841;SDS011;54642;59.126;37.876;2023-02-28T03:05:58;5.13;;;3.55;;
67841;SDS011;54642;59.126;37.876;2023-02-28T03:08:26;9.77;;;4.78;;
67841;SDS011;54642;59.126;37.876;2023-02-28T03:10:58;11.27;;;7.57;;
67841;SDS011;54642;59.126;37.876;2023-02-28T03:16:45;7.35;;;5.57;;
67841;SDS011;54642;59.126;37.876;2023-02-28T03:27:39;4.82;;;3.05;;
67841;SDS011;54642;59.126;37.876;2023-02-28T03:32:56;10.15;;;7.13;;
67841;SDS011;54642;59.126;37.876;2023-02-28T03:35:48;8.43;;;6.30;;
67841;SDS011;54642;59.126;37.876;2023-02-28T03:38:29;6.10;;;5.20;;
67841;SDS011;54642;59.126;37.876;2023-02-28T03:41:13;7.35;;;4.65;;
67841;SDS011;54642;59.126;37.876;2023-02-28T03:43:45;7.53;;;4.47;;
67841;SDS011;54642;59.126;37.876;2023-02-28T03:46:18;8.32;;;6.43;;
67841;SDS011;54642;59.126;37.876;2023-02-28T03:48:50;6.93;;;4.22;;
67841;SDS011;54642;59.126;37.876;2023-02-28T03:51:20;8.02;;;5.88;;
67841;SDS011;54642;59.126;37.876;2023-02-28T03:53:53;6.57;;;5.88;;
67841;SDS011;54642;59.126;37.876;2023-02-28T03:56:31;8.27;;;4.22;;
67841;SDS011;54642;59.126;37.876;2023-02-28T04:01:48;4.65;;;2.67;;
67841;SDS011;54642;59.126;37.876;2023-02-28T04:04:15;8.52;;;5.75;;
67841;SDS011;54642;59.126;37.876;2023-02-28T04:06:42;5.03;;;3.25;;
67841;SDS011;54642;59.126;37.876;2023-02-28T04:09:10;6.03;;;3.58;;
67841;SDS011;54642;59.126;37.876;2023-02-28T04:11:51;9.80;;;4.32;;
67841;SDS011;54642;59.126;37.876;2023-02-28T04:14:18;6.05;;;3.83;;
67841;SDS011;54642;59.126;37.876;2023-02-28T04:16:44;3.72;;;2.47;;
67841;SDS011;54642;59.126;37.876;2023-02-28T04:19:11;4.80;;;3.25;;
67841;SDS011;54642;59.126;37.876;2023-02-28T04:21:39;6.28;;;3.63;;
67841;SDS011;54642;59.126;37.876;2023-02-28T04:24:05;5.40;;;3.05;;
67841;SDS011;54642;59.126;37.876;2023-02-28T04:26:34;6.82;;;4.13;;
67841;SDS011;54642;59.126;37.876;2023-02-28T04:29:02;5.20;;;2.78;;
67841;SDS011;54642;59.126;37.876;2023-02-28T04:31:29;7.22;;;6.22;;
67841;SDS011;54642;59.126;37.876;2023-02-28T04:33:55;8.38;;;4.32;;
67841;SDS011;54642;59.126;37.876;2023-02-28T04:38:48;6.53;;;4.15;;
67841;SDS011;54642;59.126;37.876;2023-02-28T04:41:15;6.25;;;4.97;;
67841;SDS011;54642;59.126;37.876;2023-02-28T04:43:41;8.65;;;7.93;;
67841;SDS011;54642;59.126;37.876;2023-02-28T04:46:07;6.43;;;4.70;;
67841;SDS011;54642;59.126;37.876;2023-02-28T04:48:35;8.82;;;6.07;;
67841;SDS011;54642;59.126;37.876;2023-02-28T04:51:02;9.23;;;4.35;;
67841;SDS011;54642;59.126;37.876;2023-02-28T04:53:29;6.43;;;5.82;;
67841;SDS011;54642;59.126;37.876;2023-02-28T04:58:22;4.28;;;3.65;;
67841;SDS011;54642;59.126;37.876;2023-02-28T05:00:52;6.57;;;3.85;;
67841;SDS011;54642;59.126;37.876;2023-02-28T05:03:19;5.60;;;5.10;;
67841;SDS011;54642;59.126;37.876;2023-02-28T05:05:47;8.38;;;4.18;;
67841;SDS011;54642;59.126;37.876;2023-02-28T05:08:13;6.05;;;5.25;;
67841;SDS011;54642;59.126;37.876;2023-02-28T05:10:39;4.05;;;2.53;;
67841;SDS011;54642;59.126;37.876;2023-02-28T05:13:05;11.23;;;7.07;;
67841;SDS011;54642;59.126;37.876;2023-02-28T05:15:31;9.68;;;5.28;;
67841;SDS011;54642;59.126;37.876;2023-02-28T05:17:57;4.82;;;3.40;;
67841;SDS011;54642;59.126;37.876;2023-02-28T05:20:23;6.18;;;3.75;;
67841;SDS011;54642;59.126;37.876;2023-02-28T05:22:49;9.30;;;5.65;;
67841;SDS011;54642;59.126;37.876;2023-02-28T05:27:42;4.78;;;3.22;;
67841;SDS011;54642;59.126;37.876;2023-02-28T05:30:08;9.20;;;6.93;;
67841;SDS011;54642;59.126;37.876;2023-02-28T05:32:38;5.47;;;3.10;;
67841;SDS011;54642;59.126;37.876;2023-02-28T05:35:08;5.90;;;4.55;;
67841;SDS011;54642;59.126;37.876;2023-02-28T05:37:37;7.63;;;3.78;;
67841;SDS011;54642;59.126;37.876;2023-02-28T05:40:04;6.15;;;5.35;;
67841;SDS011;54642;59.126;37.876;2023-02-28T05:42:32;6.78;;;6.00;;
67841;SDS011;54642;59.126;37.876;2023-02-28T05:44:58;7.75;;;3.90;;
67841;SDS011;54642;59.126;37.876;2023-02-28T05:47:24;6.80;;;4.60;;
67841;SDS011;54642;59.126;37.876;2023-02-28T05:49:50;5.85;;;3.45;;
67841;SDS011;54642;59.126;37.876;2023-02-28T05:52:16;12.52;;;7.25;;
67841;SDS011;54642;59.126;37.876;2023-02-28T05:54:42;6.88;;;3.30;;
67841;SDS011;54642;59.126;37.876;2023-02-28T05:57:08;10.82;;;6.45;;
67841;SDS011;54642;59.126;37.876;2023-02-28T05:59:34;9.73;;;5.95;;
67841;SDS011;54642;59.126;37.876;2023-02-28T06:02:05;6.57;;;5.80;;
67841;SDS011;54642;59.126;37.876;2023-02-28T06:04:36;8.18;;;4.93;;
67841;SDS011;54642;59.126;37.876;2023-02-28T06:07:02;8.35;;;6.13;;
67841;SDS011;54642;59.126;37.876;2023-02-28T06:09:28;7.47;;;3.55;;
67841;SDS011;54642;59.126;37.876;2023-02-28T06:11:56;5.28;;;2.90;;
67841;SDS011;54642;59.126;37.876;2023-02-28T06:14:23;8.63;;;4.85;;
67841;SDS011;54642;59.126;37.876;2023-02-28T06:16:49;7.35;;;6.18;;
67841;SDS011;54642;59.126;37.876;2023-02-28T06:19:15;8.45;;;5.35;;
67841;SDS011;54642;59.126;37.876;2023-02-28T06:21:41;7.80;;;4.88;;
67841;SDS011;54642;59.126;37.876;2023-02-28T06:24:07;6.90;;;5.15;;
67841;SDS011;54642;59.126;37.876;2023-02-28T06:26:33;10.40;;;5.35;;
67841;SDS011;54642;59.126;37.876;2023-02-28T06:28:59;10.13;;;5.00;;
67841;SDS011;54642;59.126;37.876;2023-02-28T06:31:26;6.15;;;5.38;;
67841;SDS011;54642;59.126;37.876;2023-02-28T06:33:54;7.25;;;6.07;;
67841;SDS011;54642;59.126;37.876;2023-02-28T06:36:21;11.00;;;6.50;;
67841;SDS011;54642;59.126;37.876;2023-02-28T06:38:47;8.23;;;4.78;;
67841;SDS011;54642;59.126;37.876;2023-02-28T06:41:21;8.68;;;5.28;;
67841;SDS011;54642;59.126;37.876;2023-02-28T06:43:48;7.85;;;3.90;;
67841;SDS011;54642;59.126;37.876;2023-02-28T06:46:14;11.02;;;5.95;;
67841;SDS011;54642;59.126;37.876;2023-02-28T06:48:40;5.15;;;4.30;;
67841;SDS011;54642;59.126;37.876;2023-02-28T06:51:10;5.72;;;3.17;;
67841;SDS011;54642;59.126;37.876;2023-02-28T06:53:39;7.13;;;5.07;;
67841;SDS011;54642;59.126;37.876;2023-02-28T06:56:06;5.32;;;3.65;;
67841;SDS011;54642;59.126;37.876;2023-02-28T06:58:34;5.43;;;4.93;;
67841;SDS011;54642;59.126;37.876;2023-02-28T07:01:01;6.90;;;5.30;;
67841;SDS011;54642;59.126;37.876;2023-02-28T07:03:27;4.47;;;3.63;;
67841;SDS011;54642;59.126;37.876;2023-02-28T07:05:53;4.60;;;3.75;;
67841;SDS011;54642;59.126;37.876;2023-02-28T07:08:22;11.25;;;6.93;;
67841;SDS011;54642;59.126;37.876;2023-02-28T07:10:51;9.73;;;5.47;;
67841;SDS011;54642;59.126;37.876;2023-02-28T07:13:21;8.00;;;7.30;;
67841;SDS011;54642;59.126;37.876;2023-02-28T07:15:54;9.23;;;6.30;;
67841;SDS011;54642;59.126;37.876;2023-02-28T07:18:28;14.57;;;5.40;;
67841;SDS011;54642;59.126;37.876;2023-02-28T07:23:20;9.55;;;4.65;;
67841;SDS011;54642;59.126;37.876;2023-02-28T07:25:46;13.18;;;6.38;;
67841;SDS011;54642;59.126;37.876;2023-02-28T07:28:13;18.58;;;7.43;;
67841;SDS011;54642;59.126;37.876;2023-02-28T07:30:40;9.07;;;4.80;;
67841;SDS011;54642;59.126;37.876;2023-02-28T07:33:07;16.50;;;5.90;;
67841;SDS011;54642;59.126;37.876;2023-02-28T07:37:59;6.15;;;4.80;;
67841;SDS011;54642;59.126;37.876;2023-02-28T07:40:25;19.85;;;5.25;;
67841;SDS011;54642;59.126;37.876;2023-02-28T07:45:17;13.63;;;4.22;;
67841;SDS011;54642;59.126;37.876;2023-02-28T07:50:10;18.95;;;5.95;;
67841;SDS011;54642;59.126;37.876;2023-02-28T07:52:39;20.92;;;5.68;;
67841;SDS011;54642;59.126;37.876;2023-02-28T07:55:05;20.38;;;14.70;;
67841;SDS011;54642;59.126;37.876;2023-02-28T07:57:33;23.25;;;9.85;;
67841;SDS011;54642;59.126;37.876;2023-02-28T07:59:59;9.88;;;7.65;;
67841;SDS011;54642;59.126;37.876;2023-02-28T08:02:25;8.52;;;5.70;;
67841;SDS011;54642;59.126;37.876;2023-02-28T08:04:51;18.27;;;11.05;;
67841;SDS011;54642;59.126;37.876;2023-02-28T08:07:26;10.63;;;6.93;;
67841;SDS011;54642;59.126;37.876;2023-02-28T08:09:53;28.27;;;11.38;;
67841;SDS011;54642;59.126;37.876;2023-02-28T08:14:45;29.52;;;14.98;;
67841;SDS011;54642;59.126;37.876;2023-02-28T08:17:11;22.60;;;12.80;;
67841;SDS011;54642;59.126;37.876;2023-02-28T08:19:37;31.63;;;16.48;;
67841;SDS011;54642;59.126;37.876;2023-02-28T08:22:03;19.45;;;9.98;;
67841;SDS011;54642;59.126;37.876;2023-02-28T08:24:29;23.67;;;12.10;;
67841;SDS011;54642;59.126;37.876;2023-02-28T08:26:55;24.10;;;12.68;;
67841;SDS011;54642;59.126;37.876;2023-02-28T08:29:21;38.20;;;21.13;;
67841;SDS011;54642;59.126;37.876;2023-02-28T08:31:47;26.30;;;14.00;;
67841;SDS011;54642;59.126;37.876;2023-02-28T08:36:40;26.52;;;13.25;;
67841;SDS011;54642;59.126;37.876;2023-02-28T08:39:06;44.60;;;17.20;;
67841;SDS011;54642;59.126;37.876;2023-02-28T08:41:32;86.53;;;50.80;;
67841;SDS011;54642;59.126;37.876;2023-02-28T08:46:25;38.75;;;16.77;;
67841;SDS011;54642;59.126;37.876;2023-02-28T08:48:51;72.22;;;35.35;;
67841;SDS011;54642;59.126;37.876;2023-02-28T08:51:19;46.55;;;20.77;;
67841;SDS011;54642;59.126;37.876;2023-02-28T08:53:55;50.58;;;30.38;;
67841;SDS011;54642;59.126;37.876;2023-02-28T08:56:23;15.02;;;10.25;;
67841;SDS011;54642;59.126;37.876;2023-02-28T09:01:16;41.92;;;15.13;;
67841;SDS011;54642;59.126;37.876;2023-02-28T09:03:46;11.77;;;5.93;;
67841;SDS011;54642;59.126;37.876;2023-02-28T09:06:14;23.80;;;10.55;;
67841;SDS011;54642;59.126;37.876;2023-02-28T09:08:41;20.30;;;8.70;;
67841;SDS011;54642;59.126;37.876;2023-02-28T09:13:33;47.67;;;15.52;;
67841;SDS011;54642;59.126;37.876;2023-02-28T09:18:26;26.23;;;10.27;;
67841;SDS011;54642;59.126;37.876;2023-02-28T09:20:53;45.78;;;14.68;;
67841;SDS011;54642;59.126;37.876;2023-02-28T09:23:19;17.80;;;6.32;;
67841;SDS011;54642;59.126;37.876;2023-02-28T09:25:50;16.45;;;7.18;;
67841;SDS011;54642;59.126;37.876;2023-02-28T09:28:19;22.50;;;9.98;;
67841;SDS011;54642;59.126;37.876;2023-02-28T09:30:46;23.17;;;8.85;;
67841;SDS011;54642;59.126;37.876;2023-02-28T09:33:14;22.98;;;13.13;;
67841;SDS011;54642;59.126;37.876;2023-02-28T09:35:41;35.67;;;16.40;;
67841;SDS011;54642;59.126;37.876;2023-02-28T09:38:08;36.00;;;13.90;;
67841;SDS011;54642;59.126;37.876;2023-02-28T09:40:35;13.18;;;6.57;;
67841;SDS011;54642;59.126;37.876;2023-02-28T09:43:14;11.85;;;7.10;;
67841;SDS011;54642;59.126;37.876;2023-02-28T09:45:44;25.63;;;9.75;;
67841;SDS011;54642;59.126;37.876;2023-02-28T09:48:21;34.47;;;11.63;;
67841;SDS011;54642;59.126;37.876;2023-02-28T09:51:02;15.30;;;6.10;;
67841;SDS011;54642;59.126;37.876;2023-02-28T09:53:34;42.88;;;19.13;;
67841;SDS011;54642;59.126;37.876;2023-02-28T09:56:08;42.42;;;20.25;;
67841;SDS011;54642;59.126;37.876;2023-02-28T10:01:18;13.35;;;6.60;;
67841;SDS011;54642;59.126;37.876;2023-02-28T10:03:47;42.53;;;13.07;;
67841;SDS011;54642;59.126;37.876;2023-02-28T10:06:44;20.85;;;10.10;;
67841;SDS011;54642;59.126;37.876;2023-02-28T10:09:16;21.77;;;6.70;;
67841;SDS011;54642;59.126;37.876;2023-02-28T10:11:47;11.40;;;5.03;;
67841;SDS011;54642;59.126;37.876;2023-02-28T10:14:18;26.67;;;10.10;;
67841;SDS011;54642;59.126;37.876;2023-02-28T10:16:54;48.38;;;17.55;;
67841;SDS011;54642;59.126;37.876;2023-02-28T10:24:49;25.63;;;14.13;;
67841;SDS011;54642;59.126;37.876;2023-02-28T10:29:47;39.05;;;14.82;;
67841;SDS011;54642;59.126;37.876;2023-02-28T10:32:16;16.00;;;7.80;;
67841;SDS011;54642;59.126;37.876;2023-02-28T10:34:44;33.08;;;13.75;;
67841;SDS011;54642;59.126;37.876;2023-02-28T10:39:43;28.80;;;12.32;;
67841;SDS011;54642;59.126;37.876;2023-02-28T10:42:29;25.48;;;13.20;;
67841;SDS011;54642;59.126;37.876;2023-02-28T10:45:06;11.60;;;6.40;;
67841;SDS011;54642;59.126;37.876;2023-02-28T10:47:37;29.27;;;12.80;;
67841;SDS011;54642;59.126;37.876;2023-02-28T10:53:14;46.38;;;27.70;;
67841;SDS011;54642;59.126;37.876;2023-02-28T10:58:24;13.63;;;6.60;;
67841;SDS011;54642;59.126;37.876;2023-02-28T11:00:52;31.67;;;17.50;;
67841;SDS011;54642;59.126;37.876;2023-02-28T11:03:32;10.15;;;6.10;;
67841;SDS011;54642;59.126;37.876;2023-02-28T11:06:04;30.52;;;14.00;;
67841;SDS011;54642;59.126;37.876;2023-02-28T11:08:58;24.15;;;13.05;;
67841;SDS011;54642;59.126;37.876;2023-02-28T11:11:28;34.83;;;13.75;;
67841;SDS011;54642;59.126;37.876;2023-02-28T11:14:05;39.08;;;17.90;;
67841;SDS011;54642;59.126;37.876;2023-02-28T11:16:33;38.22;;;19.15;;
67841;SDS011;54642;59.126;37.876;2023-02-28T11:19:01;33.55;;;21.83;;
67841;SDS011;54642;59.126;37.876;2023-02-28T11:21:31;56.72;;;28.75;;
67841;SDS011;54642;59.126;37.876;2023-02-28T11:29:12;32.45;;;18.52;;
67841;SDS011;54642;59.126;37.876;2023-02-28T11:32:07;55.20;;;30.00;;
67841;SDS011;54642;59.126;37.876;2023-02-28T11:34:34;38.40;;;24.33;;
67841;SDS011;54642;59.126;37.876;2023-02-28T11:37:01;74.30;;;41.83;;
67841;SDS011;54642;59.126;37.876;2023-02-28T11:39:31;74.95;;;35.78;;
67841;SDS011;54642;59.126;37.876;2023-02-28T11:45:20;77.38;;;37.47;;
67841;SDS011;54642;59.126;37.876;2023-02-28T11:48:02;89.03;;;47.05;;
67841;SDS011;54642;59.126;37.876;2023-02-28T11:50:45;96.00;;;46.42;;
67841;SDS011;54642;59.126;37.876;2023-02-28T11:56:20;46.15;;;15.63;;
67841;SDS011;54642;59.126;37.876;2023-02-28T12:01:38;44.83;;;22.13;;
67841;SDS011;54642;59.126;37.876;2023-02-28T12:07:06;57.65;;;39.10;;
67841;SDS011;54642;59.126;37.876;2023-02-28T12:28:51;21.75;;;6.95;;
67841;SDS011;54642;59.126;37.876;2023-02-28T12:31:25;12.52;;;7.82;;
67841;SDS011;54642;59.126;37.876;2023-02-28T12:33:56;29.98;;;11.82;;
67841;SDS011;54642;59.126;37.876;2023-02-28T12:36:28;31.02;;;12.43;;
67841;SDS011;54642;59.126;37.876;2023-02-28T12:41:48;29.77;;;12.27;;
67841;SDS011;54642;59.126;37.876;2023-02-28T12:44:21;36.28;;;13.30;;
67841;SDS011;54642;59.126;37.876;2023-02-28T12:47:09;18.52;;;7.13;;
67841;SDS011;54642;59.126;37.876;2023-02-28T12:50:03;21.25;;;8.07;;
67841;SDS011;54642;59.126;37.876;2023-02-28T12:55:15;34.90;;;13.55;;
67841;SDS011;54642;59.126;37.876;2023-02-28T12:57:58;42.17;;;15.82;;
67841;SDS011;54642;59.126;37.876;2023-02-28T13:00:38;28.17;;;8.43;;
67841;SDS011;54642;59.126;37.876;2023-02-28T13:09:04;30.25;;;12.13;;
67841;SDS011;54642;59.126;37.876;2023-02-28T13:11:43;24.25;;;9.38;;
67841;SDS011;54642;59.126;37.876;2023-02-28T13:19:33;50.90;;;19.83;;
67841;SDS011;54642;59.126;37.876;2023-02-28T13:22:01;34.17;;;14.93;;
67841;SDS011;54642;59.126;37.876;2023-02-28T13:24:39;14.40;;;7.00;;
67841;SDS011;54642;59.126;37.876;2023-02-28T13:29:35;25.42;;;10.00;;
67841;SDS011;54642;59.126;37.876;2023-02-28T13:50:19;17.73;;;7.55;;
67841;SDS011;54642;59.126;37.876;2023-02-28T14:06:25;34.15;;;20.25;;
67841;SDS011;54642;59.126;37.876;2023-02-28T14:08:54;50.47;;;24.38;;
67841;SDS011;54642;59.126;37.876;2023-02-28T14:11:24;21.75;;;8.73;;
67841;SDS011;54642;59.126;37.876;2023-02-28T14:14:01;159.68;;;95.00;;
67841;SDS011;54642;59.126;37.876;2023-02-28T14:16:44;78.97;;;37.67;;
67841;SDS011;54642;59.126;37.876;2023-02-28T14:19:24;123.20;;;67.85;;
67841;SDS011;54642;59.126;37.876;2023-02-28T14:22:19;143.65;;;98.25;;
67841;SDS011;54642;59.126;37.876;2023-02-28T14:30:40;73.05;;;43.72;;
67841;SDS011;54642;59.126;37.876;2023-02-28T14:33:25;45.95;;;22.63;;
67841;SDS011;54642;59.126;37.876;2023-02-28T14:38:36;21.15;;;8.98;;
67841;SDS011;54642;59.126;37.876;2023-02-28T14:41:14;23.63;;;11.32;;
67841;SDS011;54642;59.126;37.876;2023-02-28T14:44:02;28.77;;;14.30;;
67841;SDS011;54642;59.126;37.876;2023-02-28T14:46:39;22.38;;;14.68;;
67841;SDS011;54642;59.126;37.876;2023-02-28T14:49:12;12.80;;;8.68;;
67841;SDS011;54642;59.126;37.876;2023-02-28T14:51:42;24.40;;;11.32;;
67841;SDS011;54642;59.126;37.876;2023-02-28T14:56:39;43.08;;;17.77;;
67841;SDS011;54642;59.126;37.876;2023-02-28T15:01:48;24.17;;;11.15;;
67841;SDS011;54642;59.126;37.876;2023-02-28T15:04:18;17.50;;;8.75;;
67841;SDS011;54642;59.126;37.876;2023-02-28T15:07:09;18.35;;;9.82;;
67841;SDS011;54642;59.126;37.876;2023-02-28T15:09:36;13.38;;;8.02;;
67841;SDS011;54642;59.126;37.876;2023-02-28T15:12:02;4.32;;;3.95;;
67841;SDS011;54642;59.126;37.876;2023-02-28T15:14:29;5.13;;;3.38;;
67841;SDS011;54642;59.126;37.876;2023-02-28T15:16:56;13.23;;;7.05;;
67841;SDS011;54642;59.126;37.876;2023-02-28T15:19:35;17.63;;;9.05;;
67841;SDS011;54642;59.126;37.876;2023-02-28T15:22:08;9.15;;;7.65;;
67841;SDS011;54642;59.126;37.876;2023-02-28T15:24:46;10.48;;;4.70;;
67841;SDS011;54642;59.126;37.876;2023-02-28T15:29:47;15.73;;;7.05;;
67841;SDS011;54642;59.126;37.876;2023-02-28T15:32:38;16.92;;;9.35;;
67841;SDS011;54642;59.126;37.876;2023-02-28T15:40:27;12.75;;;7.57;;
67841;SDS011;54642;59.126;37.876;2023-02-28T15:48:23;18.00;;;7.85;;
67841;SDS011;54642;59.126;37.876;2023-02-28T15:50:53;16.33;;;8.52;;
67841;SDS011;54642;59.126;37.876;2023-02-28T15:53:25;16.55;;;6.35;;
67841;SDS011;54642;59.126;37.876;2023-02-28T15:55:59;9.93;;;4.53;;
67841;SDS011;54642;59.126;37.876;2023-02-28T15:58:31;14.70;;;5.47;;
67841;SDS011;54642;59.126;37.876;2023-02-28T16:01:05;13.32;;;5.25;;
67841;SDS011;54642;59.126;37.876;2023-02-28T16:03:47;12.60;;;5.15;;
67841;SDS011;54642;59.126;37.876;2023-02-28T16:08:51;16.17;;;7.60;;
67841;SDS011;54642;59.126;37.876;2023-02-28T16:11:18;13.65;;;7.30;;
67841;SDS011;54642;59.126;37.876;2023-02-28T16:13:47;22.48;;;13.43;;
67841;SDS011;54642;59.126;37.876;2023-02-28T16:16:20;22.02;;;12.73;;
67841;SDS011;54642;59.126;37.876;2023-02-28T16:18:49;9.82;;;5.55;;
67841;SDS011;54642;59.126;37.876;2023-02-28T16:21:16;16.20;;;7.82;;
67841;SDS011;54642;59.126;37.876;2023-02-28T16:23:42;14.38;;;8.30;;
67841;SDS011;54642;59.126;37.876;2023-02-28T16:28:41;13.90;;;7.07;;
67841;SDS011;54642;59.126;37.876;2023-02-28T16:31:07;15.13;;;7.40;;
67841;SDS011;54642;59.126;37.876;2023-02-28T16:35:59;27.52;;;12.80;;
67841;SDS011;54642;59.126;37.876;2023-02-28T16:38:25;27.20;;;10.45;;
67841;SDS011;54642;59.126;37.876;2023-02-28T16:40:53;15.57;;;6.63;;
67841;SDS011;54642;59.126;37.876;2023-02-28T16:43:24;24.20;;;9.20;;
67841;SDS011;54642;59.126;37.876;2023-02-28T16:45:55;19.67;;;9.20;;
67841;SDS011;54642;59.126;37.876;2023-02-28T16:48:26;12.80;;;7.07;;
67841;SDS011;54642;59.126;37.876;2023-02-28T16:53:18;18.17;;;5.45;;
67841;SDS011;54642;59.126;37.876;2023-02-28T16:55:44;14.98;;;7.93;;
67841;SDS011;54642;59.126;37.876;2023-02-28T16:58:13;17.05;;;6.95;;
67841;SDS011;54642;59.126;37.876;2023-02-28T17:00:41;11.88;;;6.75;;
67841;SDS011;54642;59.126;37.876;2023-02-28T17:03:10;12.35;;;6.13;;
67841;SDS011;54642;59.126;37.876;2023-02-28T17:05:50;16.48;;;6.72;;
67841;SDS011;54642;59.126;37.876;2023-02-28T17:08:16;21.80;;;8.63;;
67841;SDS011;54642;59.126;37.876;2023-02-28T17:13:08;23.38;;;6.40;;
67841;SDS011;54642;59.126;37.876;2023-02-28T17:18:01;16.02;;;3.88;;
67841;SDS011;54642;59.126;37.876;2023-02-28T17:20:27;19.55;;;6.15;;
67841;SDS011;54642;59.126;37.876;2023-02-28T17:22:53;13.27;;;4.93;;
67841;SDS011;54642;59.126;37.876;2023-02-28T17:25:20;11.70;;;6.80;;
67841;SDS011;54642;59.126;37.876;2023-02-28T17:27:46;25.15;;;7.18;;
67841;SDS011;54642;59.126;37.876;2023-02-28T17:30:23;20.92;;;8.05;;
67841;SDS011;54642;59.126;37.876;2023-02-28T17:32:53;13.73;;;5.88;;
67841;SDS011;54642;59.126;37.876;2023-02-28T17:35:19;22.42;;;8.70;;
67841;SDS011;54642;59.126;37.876;2023-02-28T17:37:45;15.88;;;6.10;;
67841;SDS011;54642;59.126;37.876;2023-02-28T17:42:42;15.02;;;4.78;;
67841;SDS011;54642;59.126;37.876;2023-02-28T17:45:08;14.05;;;4.90;;
67841;SDS011;54642;59.126;37.876;2023-02-28T17:47:35;8.15;;;3.95;;
67841;SDS011;54642;59.126;37.876;2023-02-28T17:50:01;7.22;;;4.38;;
67841;SDS011;54642;59.126;37.876;2023-02-28T17:52:27;5.32;;;2.85;;
67841;SDS011;54642;59.126;37.876;2023-02-28T17:54:54;7.18;;;3.47;;
67841;SDS011;54642;59.126;37.876;2023-02-28T17:57:20;13.95;;;5.20;;
67841;SDS011;54642;59.126;37.876;2023-02-28T17:59:46;17.70;;;4.85;;
67841;SDS011;54642;59.126;37.876;2023-02-28T18:02:13;7.95;;;4.45;;
67841;SDS011;54642;59.126;37.876;2023-02-28T18:04:39;14.20;;;7.22;;
67841;SDS011;54642;59.126;37.876;2023-02-28T18:07:05;14.55;;;6.80;;
67841;SDS011;54642;59.126;37.876;2023-02-28T18:09:34;26.13;;;5.88;;
67841;SDS011;54642;59.126;37.876;2023-02-28T18:12:00;28.33;;;5.78;;
67841;SDS011;54642;59.126;37.876;2023-02-28T18:14:30;20.90;;;6.95;;
67841;SDS011;54642;59.126;37.876;2023-02-28T18:16:56;16.90;;;7.50;;
67841;SDS011;54642;59.126;37.876;2023-02-28T18:19:23;22.45;;;7.45;;
67841;SDS011;54642;59.126;37.876;2023-02-28T18:24:17;20.92;;;6.55;;
67841;SDS011;54642;59.126;37.876;2023-02-28T18:26:44;16.33;;;4.20;;